createdAt,value
2022-11-09T00:01:59.801Z,16.34
2022-11-09T00:04:29.805Z,16.19
2022-11-09T00:06:58.787Z,16.74
2022-11-09T00:09:28.511Z,16.53
2022-11-09T00:12:05.027Z,16.18
2022-11-09T00:14:35.791Z,16.37
2022-11-09T00:17:04.623Z,16.66
2022-11-09T00:19:33.343Z,16.33
2022-11-09T00:22:15.333Z,16.09
2022-11-09T00:24:44.492Z,16.37
2022-11-09T00:27:17.601Z,16.37
2022-11-09T00:29:46.890Z,16.44
2022-11-09T00:32:16.223Z,16.80
2022-11-09T00:34:46.163Z,16.44
2022-11-09T00:37:15.596Z,16.80
2022-11-09T00:39:44.997Z,16.70
2022-11-09T00:42:18.339Z,16.63
2022-11-09T00:44:49.586Z,16.84
2022-11-09T00:47:18.879Z,16.67
2022-11-09T00:49:48.414Z,16.60
2022-11-09T00:52:18.536Z,16.43
2022-11-09T00:54:46.937Z,16.18
2022-11-09T00:57:19.557Z,16.21
2022-11-09T00:59:48.503Z,16.26
2022-11-09T01:02:19.592Z,16.25
2022-11-09T01:04:52.029Z,16.46
2022-11-09T01:07:21.622Z,16.27
2022-11-09T01:09:51.069Z,16.18
2022-11-09T01:12:21.970Z,16.29
2022-11-09T01:14:53.215Z,16.42
2022-11-09T01:17:22.567Z,15.89
2022-11-09T01:19:51.666Z,16.19
2022-11-09T01:22:29.923Z,16.05
2022-11-09T01:24:59.634Z,16.10
2022-11-09T01:27:30.107Z,16.25
2022-11-09T01:30:00.087Z,16.00
2022-11-09T01:32:29.841Z,15.64
2022-11-09T01:34:59.080Z,15.98
2022-11-09T01:37:29.558Z,16.16
2022-11-09T01:39:58.465Z,16.03
2022-11-09T01:42:30.709Z,15.96
2022-11-09T01:45:33.512Z,15.80
2022-11-09T01:48:10.763Z,15.83
2022-11-09T01:50:47.560Z,15.63
2022-11-09T01:53:23.296Z,15.93
2022-11-09T01:55:57.956Z,15.80
2022-11-09T01:58:32.823Z,15.70
2022-11-09T02:01:11.427Z,15.60
2022-11-09T02:03:45.992Z,16.01
2022-11-09T02:06:18.495Z,15.81
2022-11-09T02:08:49.409Z,15.68
2022-11-09T02:11:21.981Z,15.46
2022-11-09T02:14:04.214Z,15.66
2022-11-09T02:16:34.512Z,15.70
2022-11-09T02:19:03.548Z,15.70
2022-11-09T02:21:34.458Z,15.29
2022-11-09T02:24:03.907Z,15.53
2022-11-09T02:26:37.232Z,15.64
2022-11-09T02:29:10.537Z,15.23
2022-11-09T02:31:44.878Z,15.51
2022-11-09T02:34:18.331Z,15.56
2022-11-09T02:36:52.284Z,15.76
2022-11-09T02:39:26.562Z,15.71
2022-11-09T02:42:03.131Z,15.71
2022-11-09T02:44:42.531Z,15.79
2022-11-09T02:47:11.587Z,15.83
2022-11-09T02:49:41.289Z,15.65
2022-11-09T02:52:15.957Z,15.58
2022-11-09T02:54:44.679Z,15.69
2022-11-09T02:57:14.394Z,15.49
2022-11-09T02:59:43.750Z,15.74
2022-11-09T03:02:13.729Z,15.56
2022-11-09T03:04:43.646Z,15.50
2022-11-09T03:07:14.332Z,15.57
2022-11-09T03:09:48.624Z,15.75
2022-11-09T03:12:39.126Z,15.53
2022-11-09T03:15:13.753Z,15.46
2022-11-09T03:17:44.375Z,15.66
2022-11-09T03:20:13.441Z,15.81
2022-11-09T03:22:43.435Z,15.37
2022-11-09T03:25:12.169Z,15.53
2022-11-09T03:27:41.145Z,14.92
2022-11-09T03:30:12.766Z,15.42
2022-11-09T03:32:41.501Z,15.04
2022-11-09T03:35:11.159Z,15.18
2022-11-09T03:37:45.617Z,15.39
2022-11-09T03:40:15.375Z,15.70
2022-11-09T03:42:48.458Z,15.46
2022-11-09T03:45:18.903Z,15.48
2022-11-09T03:47:49.216Z,15.53
2022-11-09T03:50:19.141Z,15.29
2022-11-09T03:52:50.792Z,15.15
2022-11-09T03:55:22.448Z,15.26
2022-11-09T03:57:53.675Z,15.41
2022-11-09T04:00:25.347Z,15.08
2022-11-09T04:02:56.269Z,15.30
2022-11-09T04:05:29.205Z,15.42
2022-11-09T04:08:01.767Z,15.32
2022-11-09T04:10:32.568Z,15.28
2022-11-09T04:13:02.919Z,15.18
2022-11-09T04:15:31.681Z,15.22
2022-11-09T04:18:04.073Z,15.34
2022-11-09T04:20:35.729Z,15.34
2022-11-09T04:23:08.577Z,15.25
2022-11-09T04:25:39.332Z,15.18
2022-11-09T04:28:12.617Z,14.85
2022-11-09T04:30:43.752Z,15.11
2022-11-09T04:33:13.601Z,15.05
2022-11-09T04:35:44.541Z,14.95
2022-11-09T04:38:16.274Z,15.19
2022-11-09T04:40:45.366Z,15.34
2022-11-09T04:43:16.014Z,15.22
2022-11-09T04:45:47.120Z,15.35
2022-11-09T04:48:15.836Z,15.35
2022-11-09T04:50:44.693Z,15.04
2022-11-09T04:53:17.208Z,15.06
2022-11-09T04:55:46.506Z,15.06
2022-11-09T04:58:22.434Z,15.23
2022-11-09T05:00:54.917Z,15.27
2022-11-09T05:03:24.072Z,15.40
2022-11-09T05:05:53.255Z,15.34
2022-11-09T05:08:27.275Z,15.11
2022-11-09T05:10:59.494Z,15.30
2022-11-09T05:13:30.830Z,15.30
2022-11-09T05:16:04.446Z,15.08
2022-11-09T05:18:35.367Z,15.19
2022-11-09T05:21:06.196Z,14.66
2022-11-09T05:23:54.451Z,15.16
2022-11-09T05:26:25.428Z,15.05
2022-11-09T05:28:55.359Z,14.65
2022-11-09T05:31:24.931Z,15.15
2022-11-09T05:33:54.808Z,15.19
2022-11-09T05:36:24.628Z,14.84
2022-11-09T05:38:55.264Z,14.90
2022-11-09T05:41:25.480Z,14.58
2022-11-09T05:43:54.871Z,14.76
2022-11-09T05:46:25.726Z,15.12
2022-11-09T05:48:56.624Z,14.89
2022-11-09T05:51:27.493Z,14.85
2022-11-09T05:53:58.666Z,14.90
2022-11-09T06:02:03.082Z,14.70
2022-11-09T06:07:38.742Z,14.65
2022-11-09T06:10:12.442Z,14.79
2022-11-09T06:12:46.891Z,14.52
2022-11-09T06:15:16.704Z,14.80
2022-11-09T06:17:46.598Z,14.63
2022-11-09T06:20:15.900Z,14.83
2022-11-09T06:22:44.370Z,14.42
2022-11-09T06:25:15.720Z,14.43
2022-11-09T06:27:47.218Z,14.33
2022-11-09T06:30:19.551Z,14.75
2022-11-09T06:32:49.219Z,14.61
2022-11-09T06:35:20.049Z,14.43
2022-11-09T06:37:50.819Z,14.56
2022-11-09T06:40:23.875Z,14.39
2022-11-09T06:42:52.923Z,14.53
2022-11-09T06:45:24.412Z,14.42
2022-11-09T06:47:58.763Z,14.45
2022-11-09T06:50:29.760Z,14.45
2022-11-09T06:53:00.076Z,14.43
2022-11-09T06:55:33.460Z,14.36
2022-11-09T06:58:07.126Z,14.42
2022-11-09T07:00:36.851Z,14.55
2022-11-09T07:03:07.254Z,14.26
2022-11-09T07:05:41.955Z,14.52
2022-11-09T07:08:11.741Z,14.50
2022-11-09T07:10:46.163Z,14.33
2022-11-09T07:13:29.957Z,14.39
2022-11-09T07:15:59.964Z,14.32
2022-11-09T07:18:29.710Z,14.49
2022-11-09T07:21:00.468Z,14.72
2022-11-09T07:23:30.119Z,14.95
2022-11-09T07:26:02.693Z,14.84
2022-11-09T07:28:31.725Z,15.00
2022-11-09T07:31:01.630Z,14.81
2022-11-09T07:33:33.417Z,14.46
2022-11-09T07:36:04.266Z,14.99
2022-11-09T07:38:33.658Z,15.23
2022-11-09T07:41:09.873Z,14.99
2022-11-09T07:43:39.291Z,14.64
2022-11-09T07:46:08.678Z,14.95
2022-11-09T07:48:37.620Z,14.83
2022-11-09T07:51:07.396Z,15.40
2022-11-09T07:53:36.041Z,15.52
2022-11-09T07:56:06.731Z,15.27
2022-11-09T07:58:36.936Z,15.37
2022-11-09T08:01:10.699Z,15.73
2022-11-09T08:03:40.578Z,15.89
2022-11-09T08:06:11.996Z,15.60
2022-11-09T08:08:45.060Z,15.60
2022-11-09T08:11:16.958Z,15.96
2022-11-09T08:13:46.108Z,16.05
2022-11-09T08:16:16.014Z,16.02
2022-11-09T08:18:46.689Z,15.62
2022-11-09T08:21:16.506Z,16.09
2022-11-09T08:23:45.578Z,15.64
2022-11-09T08:26:17.895Z,16.47
2022-11-09T08:28:50.911Z,16.40
2022-11-09T08:31:29.157Z,16.18
2022-11-09T08:33:59.335Z,15.68
2022-11-09T08:36:30.073Z,16.14
2022-11-09T08:42:03.699Z,15.75
2022-11-09T08:44:33.934Z,16.20
2022-11-09T08:47:04.805Z,16.04
2022-11-09T08:49:35.589Z,15.74
2022-11-09T08:52:08.482Z,15.90
2022-11-09T08:54:55.496Z,15.96
2022-11-09T09:00:19.533Z,16.12
2022-11-09T09:11:21.588Z,16.26
2022-11-09T09:13:57.204Z,16.19
2022-11-09T09:16:27.588Z,16.46
2022-11-09T09:18:58.800Z,16.45
2022-11-09T09:21:32.744Z,16.42
2022-11-09T09:24:01.995Z,16.47
2022-11-09T09:26:34.605Z,16.10
2022-11-09T09:29:06.317Z,16.39
2022-11-09T09:31:43.169Z,16.52
2022-11-09T09:34:14.589Z,16.56
2022-11-09T09:36:48.072Z,16.35
2022-11-09T09:39:18.336Z,16.63
2022-11-09T09:41:54.031Z,16.70
2022-11-09T09:44:46.160Z,16.69
2022-11-09T09:47:24.379Z,16.77
2022-11-09T09:50:08.045Z,16.66
2022-11-09T09:55:37.593Z,16.69
2022-11-09T10:03:59.068Z,16.69
2022-11-09T10:06:58.068Z,16.31
2022-11-09T10:09:56.033Z,16.79
2022-11-09T10:12:37.094Z,16.45
2022-11-09T10:15:17.143Z,16.44
2022-11-09T10:18:07.941Z,17.00
2022-11-09T10:23:51.268Z,16.56
2022-11-09T10:26:25.242Z,16.85
2022-11-09T10:29:19.491Z,16.46
2022-11-09T10:31:51.155Z,16.78
2022-11-09T10:34:27.591Z,16.68
2022-11-09T10:37:07.717Z,16.63
2022-11-09T10:42:37.410Z,16.74
2022-11-09T10:45:17.155Z,16.80
2022-11-09T10:47:49.924Z,16.45
2022-11-09T10:50:29.401Z,16.74
2022-11-09T10:53:14.854Z,17.04
2022-11-09T10:55:54.749Z,17.40
2022-11-09T10:58:34.060Z,17.15
2022-11-09T11:01:06.835Z,17.18
2022-11-09T11:03:38.936Z,17.02
2022-11-09T11:06:18.109Z,17.01
2022-11-09T11:08:48.994Z,17.67
2022-11-09T11:11:39.454Z,16.98
2022-11-09T11:14:21.651Z,17.52
2022-11-09T11:16:54.310Z,17.48
2022-11-09T11:19:38.167Z,17.62
2022-11-09T11:22:27.535Z,17.43
2022-11-09T11:24:59.218Z,17.34
2022-11-09T11:27:38.090Z,16.91
2022-11-09T11:30:14.225Z,17.28
2022-11-09T11:32:49.901Z,17.48
2022-11-09T11:35:36.072Z,17.36
2022-11-09T11:38:23.808Z,17.30
2022-11-09T11:41:06.056Z,17.45
2022-11-09T11:43:46.434Z,17.81
2022-11-09T11:46:24.496Z,17.05
2022-11-09T11:49:31.517Z,17.26
2022-11-09T11:52:12.065Z,17.16
2022-11-09T11:54:57.267Z,17.32
2022-11-09T11:57:39.074Z,17.18
2022-11-09T12:00:15.240Z,17.29
2022-11-09T12:03:24.165Z,17.41
2022-11-09T12:06:12.438Z,17.15
2022-11-09T12:09:13.441Z,17.15
2022-11-09T12:12:01.184Z,16.94
2022-11-09T12:14:42.487Z,17.12
2022-11-09T12:17:24.264Z,17.38
2022-11-09T12:20:11.405Z,17.92
2022-11-09T12:22:59.553Z,18.03
2022-11-09T12:25:37.906Z,17.77
2022-11-09T12:28:31.067Z,17.84
2022-11-09T12:31:14.054Z,17.45
2022-11-09T12:33:50.322Z,17.59
2022-11-09T12:36:25.340Z,17.30
2022-11-09T12:39:03.821Z,17.67
2022-11-09T12:41:38.431Z,17.37
2022-11-09T12:44:18.162Z,17.25
2022-11-09T12:46:55.679Z,17.63
2022-11-09T12:49:37.285Z,17.40
2022-11-09T12:52:09.311Z,17.23
2022-11-09T12:54:44.448Z,16.92
2022-11-09T12:57:18.077Z,17.51
2022-11-09T12:59:51.379Z,17.68
2022-11-09T13:02:32.108Z,17.73
2022-11-09T13:05:03.664Z,17.72
2022-11-09T13:07:49.834Z,17.32
2022-11-09T13:10:34.543Z,17.74
2022-11-09T13:13:25.182Z,17.80
2022-11-09T13:16:32.472Z,17.71
2022-11-09T13:19:04.311Z,18.05
2022-11-09T13:21:44.607Z,18.15
2022-11-09T13:24:56.395Z,17.81
2022-11-09T13:27:44.675Z,17.81
2022-11-09T13:30:44.730Z,17.38
2022-11-09T13:33:25.156Z,17.77
2022-11-09T13:36:18.871Z,17.93
2022-11-09T13:39:26.443Z,17.81
2022-11-09T13:42:01.151Z,16.91
2022-11-09T13:44:35.768Z,17.57
2022-11-09T13:47:07.334Z,17.30
2022-11-09T13:49:50.605Z,17.28
2022-11-09T13:52:50.740Z,17.00
2022-11-09T13:55:36.824Z,16.98
2022-11-09T13:58:15.355Z,16.83
2022-11-09T14:00:48.584Z,16.88
2022-11-09T14:03:25.384Z,16.55
2022-11-09T14:05:59.346Z,17.12
2022-11-09T14:08:37.543Z,16.74
2022-11-09T14:11:40.238Z,16.96
2022-11-09T14:14:48.899Z,16.49
2022-11-09T14:17:23.946Z,16.33
2022-11-09T14:20:11.536Z,16.22
2022-11-09T14:22:44.910Z,16.26
2022-11-09T14:25:18.576Z,16.64
2022-11-09T14:27:59.122Z,16.48
2022-11-09T14:30:30.770Z,16.79
2022-11-09T14:33:00.697Z,16.47
2022-11-09T14:35:32.675Z,16.71
2022-11-09T14:38:19.147Z,16.78
2022-11-09T14:40:50.015Z,16.30
2022-11-09T14:43:28.833Z,16.47
2022-11-09T14:46:06.326Z,16.43
2022-11-09T14:48:40.855Z,16.20
2022-11-09T14:51:14.689Z,16.69
2022-11-09T14:53:46.660Z,16.49
2022-11-09T14:56:21.238Z,16.54
2022-11-09T14:58:51.450Z,16.08
2022-11-09T15:01:25.210Z,16.12
2022-11-09T15:04:17.681Z,16.20
2022-11-09T15:06:50.088Z,16.39
2022-11-09T15:09:23.606Z,16.35
2022-11-09T15:11:53.309Z,16.37
2022-11-09T15:14:31.397Z,15.93
2022-11-09T15:17:15.054Z,16.05
2022-11-09T15:19:54.053Z,16.02
2022-11-09T15:22:49.017Z,16.44
2022-11-09T15:25:31.308Z,16.15
2022-11-09T15:28:19.716Z,16.21
2022-11-09T15:31:06.031Z,16.37
2022-11-09T15:33:52.416Z,16.04
2022-11-09T15:36:31.990Z,15.75
2022-11-09T15:39:10.476Z,16.15
2022-11-09T15:41:40.916Z,15.76
2022-11-09T15:44:10.820Z,15.83
2022-11-09T15:46:46.217Z,15.95
2022-11-09T15:49:23.128Z,16.15
2022-11-09T15:51:56.255Z,16.00
2022-11-09T15:57:52.649Z,16.01
2022-11-09T16:00:55.293Z,15.59
2022-11-09T16:03:25.728Z,15.99
2022-11-09T16:06:02.049Z,15.61
2022-11-09T16:08:34.123Z,15.84
2022-11-09T16:11:06.224Z,15.53
2022-11-09T16:16:31.313Z,15.72
2022-11-09T16:19:00.686Z,15.96
2022-11-09T16:21:33.179Z,15.67
2022-11-09T16:24:02.697Z,15.89
2022-11-09T16:26:32.051Z,15.67
2022-11-09T16:29:02.683Z,15.74
2022-11-09T16:31:50.901Z,15.50
2022-11-09T16:37:45.884Z,15.64
2022-11-09T16:40:19.632Z,15.20
2022-11-09T16:42:49.604Z,15.27
2022-11-09T16:45:33.025Z,15.23
2022-11-09T16:48:06.569Z,15.33
2022-11-09T16:50:40.972Z,15.22
2022-11-09T16:53:14.204Z,15.18
2022-11-09T16:55:53.405Z,15.21
2022-11-09T16:58:22.822Z,15.33
2022-11-09T17:01:12.337Z,15.12
2022-11-09T17:03:42.005Z,15.02
2022-11-09T17:06:14.577Z,14.94
2022-11-09T17:08:45.351Z,15.04
2022-11-09T17:11:17.601Z,15.00
2022-11-09T17:13:46.251Z,15.11
2022-11-09T17:16:20.430Z,15.37
2022-11-09T17:18:49.246Z,14.75
2022-11-09T17:21:18.500Z,15.15
2022-11-09T17:23:48.320Z,15.12
2022-11-09T17:26:22.505Z,15.07
2022-11-09T17:28:52.112Z,14.98
2022-11-09T17:31:27.151Z,15.01
2022-11-09T17:34:01.070Z,15.14
2022-11-09T17:37:02.417Z,15.17
2022-11-09T17:39:34.695Z,15.14
2022-11-09T17:42:15.832Z,15.10
2022-11-09T17:47:56.971Z,14.89
2022-11-09T17:50:27.306Z,14.65
2022-11-09T17:53:01.073Z,14.92
2022-11-09T17:55:31.233Z,15.24
2022-11-09T17:58:00.271Z,15.10
2022-11-09T18:03:37.998Z,14.82
2022-11-09T18:06:12.718Z,14.83
2022-11-09T18:08:42.561Z,14.74
2022-11-09T18:11:13.193Z,14.78
2022-11-09T18:13:45.433Z,14.36
2022-11-09T18:16:17.827Z,14.53
2022-11-09T18:18:48.950Z,14.87
2022-11-09T18:21:20.255Z,14.96
2022-11-09T18:23:49.518Z,14.82
2022-11-09T18:26:19.912Z,14.65
2022-11-09T18:28:51.062Z,14.41
2022-11-09T18:31:19.808Z,14.64
2022-11-09T18:33:50.945Z,14.70
2022-11-09T18:36:22.064Z,14.41
2022-11-09T18:38:52.946Z,14.54
2022-11-09T18:41:24.835Z,14.15
2022-11-09T18:43:58.545Z,14.58
2022-11-09T18:52:21.673Z,14.27
2022-11-09T18:55:19.981Z,14.50
2022-11-09T18:58:08.403Z,14.30
2022-11-09T19:00:37.139Z,14.56
2022-11-09T19:03:08.336Z,14.40
2022-11-09T19:05:54.434Z,14.57
2022-11-09T19:08:46.399Z,14.48
2022-11-09T19:11:22.351Z,14.45
2022-11-09T19:13:57.853Z,14.44
2022-11-09T19:16:53.235Z,14.58
2022-11-09T19:19:32.505Z,14.41
2022-11-09T19:22:12.474Z,14.51
2022-11-09T19:24:43.354Z,14.55
2022-11-09T19:27:16.403Z,14.79
2022-11-09T19:29:47.275Z,14.82
2022-11-09T19:32:24.637Z,14.71
2022-11-09T19:34:58.574Z,14.47
2022-11-09T19:37:47.575Z,14.71
2022-11-09T19:40:27.570Z,14.62
2022-11-09T19:43:08.695Z,14.51
2022-11-09T19:45:44.688Z,14.53
2022-11-09T19:48:15.859Z,14.45
2022-11-09T19:50:49.209Z,14.35
2022-11-09T19:53:20.385Z,13.98
2022-11-09T19:55:51.824Z,14.13
2022-11-09T19:58:24.182Z,13.82
2022-11-09T20:00:53.554Z,13.84
2022-11-09T20:03:22.397Z,14.12
2022-11-09T20:05:56.592Z,14.21
2022-11-09T20:08:32.639Z,13.88
2022-11-09T20:11:12.439Z,13.73
2022-11-09T20:13:44.312Z,14.10
2022-11-09T20:16:31.091Z,14.12
2022-11-09T20:19:05.731Z,14.05
2022-11-09T20:21:45.325Z,13.78
2022-11-09T20:24:30.635Z,13.90
2022-11-09T20:27:05.941Z,13.76
2022-11-09T20:29:44.218Z,13.80
2022-11-09T20:32:28.340Z,13.70
2022-11-09T20:35:05.828Z,13.89
2022-11-09T20:37:49.966Z,13.90
2022-11-09T20:40:27.584Z,14.08
2022-11-09T20:43:02.004Z,13.97
2022-11-09T20:45:35.349Z,14.15
2022-11-09T20:48:31.070Z,14.07
2022-11-09T20:51:06.867Z,14.07
2022-11-09T20:53:41.082Z,13.82
2022-11-09T20:56:14.444Z,14.07
2022-11-09T20:58:49.872Z,13.91
2022-11-09T21:01:30.494Z,13.88
2022-11-09T21:04:06.417Z,13.97
2022-11-09T21:06:42.226Z,13.92
2022-11-09T21:09:12.168Z,13.94
2022-11-09T21:11:56.212Z,14.03
2022-11-09T21:14:25.658Z,13.56
2022-11-09T21:16:55.169Z,13.68
2022-11-09T21:19:24.833Z,13.72
2022-11-09T21:21:55.559Z,13.95
2022-11-09T21:24:42.348Z,14.01
2022-11-09T21:27:48.058Z,14.28
2022-11-09T21:30:19.556Z,14.16
2022-11-09T21:32:49.426Z,14.22
2022-11-09T21:35:19.332Z,13.88
2022-11-09T21:37:48.573Z,14.13
2022-11-09T21:40:18.864Z,13.84
2022-11-09T21:42:50.449Z,13.53
2022-11-09T21:45:19.208Z,13.76
2022-11-09T21:47:48.155Z,13.75
2022-11-09T21:50:18.699Z,13.97
2022-11-09T21:52:51.262Z,13.96
2022-11-09T21:55:22.303Z,13.68
2022-11-09T21:57:55.562Z,13.68
2022-11-09T22:00:26.611Z,13.79
2022-11-09T22:02:56.995Z,13.61
2022-11-09T22:05:25.870Z,13.68
2022-11-09T22:07:55.632Z,13.84
2022-11-09T22:10:25.511Z,13.87
2022-11-09T22:13:19.827Z,13.61
2022-11-09T22:16:05.682Z,13.82
2022-11-09T22:18:52.217Z,13.79
2022-11-09T22:21:21.772Z,13.58
2022-11-09T22:23:53.177Z,13.69
2022-11-09T22:26:22.177Z,13.62
2022-11-09T22:28:52.424Z,13.56
2022-11-09T22:31:22.811Z,13.56
2022-11-09T22:33:51.850Z,13.72
2022-11-09T22:36:23.406Z,13.56
2022-11-09T22:38:53.190Z,13.55
2022-11-09T22:41:24.747Z,13.55
2022-11-09T22:43:56.677Z,13.64
2022-11-09T22:46:25.484Z,13.59
2022-11-09T22:48:54.574Z,13.42
2022-11-09T22:51:24.189Z,13.64
2022-11-09T22:53:54.228Z,13.55
2022-11-09T22:56:23.209Z,13.55
2022-11-09T22:58:54.930Z,13.69
2022-11-09T23:01:23.477Z,13.37
2022-11-09T23:03:52.626Z,13.38
2022-11-09T23:06:24.471Z,13.51
2022-11-09T23:08:55.598Z,13.50
2022-11-09T23:11:27.078Z,13.73
2022-11-09T23:13:58.336Z,13.40
2022-11-09T23:16:28.050Z,13.55
2022-11-09T23:18:55.829Z,13.68
2022-11-09T23:21:28.352Z,13.38
2022-11-09T23:23:59.920Z,13.10
2022-11-09T23:26:30.970Z,13.41
2022-11-09T23:29:05.024Z,13.57
2022-11-09T23:31:34.088Z,13.70
2022-11-09T23:34:08.809Z,13.72
2022-11-09T23:36:40.326Z,13.76
2022-11-09T23:39:09.241Z,13.63
2022-11-09T23:41:37.495Z,13.94
2022-11-09T23:44:08.959Z,13.70
2022-11-09T23:46:38.027Z,13.87
2022-11-09T23:49:06.856Z,13.82
2022-11-09T23:51:36.459Z,13.82
2022-11-09T23:54:05.834Z,13.83
2022-11-09T23:56:34.789Z,13.73
2022-11-09T23:59:04.567Z,13.90
